Time;durP1;ratioP1;P1;durP2;ratioP2;P2;SDS_P1;SDS_P2;PMS_P1;PMS_P2;Temp;Humidity;BMP_temperature;BMP_pressure;BME280_temperature;BME280_humidity;BME280_pressure;Samples;Min_cycle;Max_cycle;Signal;HPM_P1;HPM_P2
2022/10/04 00:01:57;;;;;;;6.88;3.08;;;16.60;93.20;;;;;;5056888;28;20040;-67
2022/10/04 00:04:39;;;;;;;12.45;3.22;;;16.60;93.20;;;;;;5058617;28;20020;-67
2022/10/04 00:07:10;;;;;;;9.35;3.33;;;16.60;93.30;;;;;;5054126;28;20367;-67
2022/10/04 00:10:05;;;;;;;12.23;3.15;;;16.60;93.20;;;;;;5054594;28;20052;-67
2022/10/04 00:12:38;;;;;;;11.80;3.05;;;16.60;93.30;;;;;;5053690;28;20478;-67
2022/10/04 00:15:16;;;;;;;9.60;3.05;;;16.60;93.30;;;;;;5054483;28;20515;-67
2022/10/04 00:17:42;;;;;;;15.15;3.60;;;16.50;93.30;;;;;;5054599;28;20495;-67
2022/10/04 00:20:46;;;;;;;11.10;3.25;;;16.50;93.30;;;;;;5053547;28;20072;-67
2022/10/04 00:23:23;;;;;;;9.77;3.45;;;16.50;93.40;;;;;;5054174;28;20053;-67
2022/10/04 00:25:54;;;;;;;11.43;3.30;;;16.40;93.30;;;;;;5054207;28;20503;-67
2022/10/04 00:28:19;;;;;;;8.95;3.28;;;16.40;93.40;;;;;;5053593;28;20068;-67
2022/10/04 00:31:05;;;;;;;12.40;4.10;;;16.40;93.40;;;;;;5054196;28;20051;-67
2022/10/04 00:33:56;;;;;;;10.20;3.70;;;16.40;93.50;;;;;;5052644;28;20037;-67
2022/10/04 00:36:24;;;;;;;6.57;3.00;;;16.40;93.50;;;;;;5051230;28;20128;-67
2022/10/04 00:39:08;;;;;;;10.15;3.63;;;16.30;93.50;;;;;;5054150;28;20033;-67
2022/10/04 00:41:37;;;;;;;;;;;16.40;93.50;;;;;;5053531;28;20391;-67
2022/10/04 00:44:07;;;;;;;8.23;3.10;;;16.30;93.40;;;;;;5053764;28;20011;-67
2022/10/04 00:46:35;;;;;;;10.00;3.67;;;16.30;93.40;;;;;;5053924;28;20075;-67
2022/10/04 00:49:03;;;;;;;11.68;3.50;;;16.30;93.50;;;;;;5053207;28;20041;-67
2022/10/04 00:51:47;;;;;;;10.45;3.38;;;16.30;93.50;;;;;;5053736;28;20466;-67
2022/10/04 00:54:22;;;;;;;12.70;3.33;;;16.30;93.60;;;;;;5053614;28;20444;-67
2022/10/04 00:57:09;;;;;;;14.77;3.75;;;16.30;93.50;;;;;;5053192;28;20392;-67
2022/10/04 00:59:45;;;;;;;11.13;3.83;;;16.30;93.60;;;;;;5053639;28;20064;-67
2022/10/04 01:02:25;;;;;;;14.27;3.55;;;16.20;93.60;;;;;;5052859;28;20081;-67
2022/10/04 01:05:00;;;;;;;8.80;3.47;;;16.20;93.60;;;;;;5053642;28;20048;-67
2022/10/04 01:07:36;;;;;;;12.02;3.90;;;16.20;93.90;;;;;;5053536;28;20479;-67
2022/10/04 01:10:12;;;;;;;13.90;3.22;;;16.20;93.70;;;;;;5052804;28;20036;-67
2022/10/04 01:12:50;;;;;;;10.07;3.80;;;16.20;93.70;;;;;;5053586;28;20029;-67
2022/10/04 01:15:28;;;;;;;8.55;3.60;;;16.20;93.70;;;;;;5052924;28;20037;-67
2022/10/04 01:18:07;;;;;;;12.45;3.63;;;16.30;93.60;;;;;;5053002;28;20029;-67
2022/10/04 01:20:39;;;;;;;9.40;3.15;;;16.20;93.60;;;;;;5053558;28;20025;-67
2022/10/04 01:23:08;;;;;;;11.70;3.83;;;16.20;93.60;;;;;;5052410;28;20033;-67
2022/10/04 01:25:48;;;;;;;6.90;3.80;;;16.20;93.60;;;;;;5053865;28;20087;-67
2022/10/04 01:28:14;;;;;;;8.50;3.45;;;16.20;93.70;;;;;;5053481;28;20036;-67
2022/10/04 01:30:40;;;;;;;14.98;3.90;;;16.20;93.60;;;;;;5052646;28;20383;-67
2022/10/04 01:33:06;;;;;;;9.07;3.45;;;16.10;93.70;;;;;;5053285;28;20496;-67
2022/10/04 01:35:34;;;;;;;15.82;3.70;;;16.20;93.70;;;;;;5053174;28;20032;-67
2022/10/04 01:38:07;;;;;;;15.10;4.38;;;16.10;93.60;;;;;;5052437;28;20066;-67
2022/10/04 01:40:35;;;;;;;13.02;4.03;;;16.10;93.70;;;;;;5053346;28;20375;-67
2022/10/04 01:43:08;;;;;;;10.65;4.18;;;16.10;93.70;;;;;;5053300;28;20427;-67
2022/10/04 01:45:42;;;;;;;11.50;3.53;;;16.10;93.70;;;;;;5052455;28;20503;-67
2022/10/04 01:48:15;;;;;;;12.32;3.75;;;16.00;93.70;;;;;;5053278;28;20037;-67
2022/10/04 01:50:50;;;;;;;13.57;4.03;;;16.10;93.70;;;;;;5052523;28;20125;-67
2022/10/04 01:53:30;;;;;;;10.95;3.65;;;16.10;93.70;;;;;;5053319;28;20281;-67
2022/10/04 01:56:11;;;;;;;13.93;3.97;;;16.10;93.80;;;;;;5052988;28;20405;-67
2022/10/04 01:58:48;;;;;;;11.43;3.85;;;16.10;93.70;;;;;;5052304;28;20471;-68
2022/10/04 02:01:33;;;;;;;14.20;3.65;;;16.00;93.70;;;;;;5053143;28;20072;-67
2022/10/04 02:04:07;;;;;;;15.77;4.40;;;16.00;93.70;;;;;;5053081;28;20044;-67
2022/10/04 02:06:40;;;;;;;9.88;3.85;;;16.00;93.80;;;;;;5052191;28;20043;-67
2022/10/04 02:09:14;;;;;;;18.80;4.00;;;16.00;93.90;;;;;;5053062;28;20379;-67
2022/10/04 02:11:42;;;;;;;;;;;16.00;93.80;;;;;;5053584;28;20438;-67
2022/10/04 02:14:17;;;;;;;10.18;3.70;;;16.00;93.60;;;;;;5052248;28;20326;-67
2022/10/04 02:16:46;;;;;;;10.07;3.70;;;16.00;93.60;;;;;;5052860;28;20033;-67
2022/10/04 02:19:13;;;;;;;12.25;3.83;;;16.00;93.60;;;;;;5052174;28;20442;-67
2022/10/04 02:21:39;;;;;;;8.75;3.58;;;16.00;93.60;;;;;;5052860;28;20104;-67
2022/10/04 02:24:07;;;;;;;12.25;4.40;;;16.00;93.60;;;;;;5052859;28;20049;-67
2022/10/04 02:26:33;;;;;;;17.33;4.68;;;15.90;93.60;;;;;;5053975;28;20024;-67
2022/10/04 02:28:58;;;;;;;9.25;4.95;;;15.90;93.70;;;;;;5056640;28;20531;-67
2022/10/04 02:34:11;;;;;;;21.50;4.78;;;15.90;93.70;;;;;;5055442;28;20047;-67
2022/10/04 02:36:38;;;;;;;11.93;4.20;;;15.90;93.80;;;;;;5056136;28;20396;-67
2022/10/04 02:39:09;;;;;;;16.77;4.82;;;15.90;93.80;;;;;;5056332;28;20094;-67
2022/10/04 02:42:01;;;;;;;10.85;4.32;;;15.90;93.80;;;;;;5055333;28;20060;-67
2022/10/04 02:44:39;;;;;;;18.77;4.53;;;15.90;93.80;;;;;;5056137;28;20037;-67
2022/10/04 02:47:08;;;;;;;7.93;3.63;;;15.90;93.70;;;;;;5055319;28;20029;-67
2022/10/04 02:49:45;;;;;;;15.15;4.35;;;15.90;93.70;;;;;;5056118;28;20025;-67
2022/10/04 02:52:21;;;;;;;13.30;4.20;;;15.90;93.70;;;;;;5056003;28;20037;-67
2022/10/04 02:55:03;;;;;;;16.10;4.10;;;15.90;93.70;;;;;;5054969;28;20071;-67
2022/10/04 02:57:31;;;;;;;11.68;4.20;;;15.80;93.70;;;;;;5055881;28;20033;-67
2022/10/04 03:00:19;;;;;;;19.50;5.07;;;15.80;93.60;;;;;;5055924;28;20029;-67
2022/10/04 03:03:20;;;;;;;10.90;4.70;;;15.80;93.70;;;;;;5055122;28;20029;-67
2022/10/04 03:06:09;;;;;;;10.88;4.60;;;15.80;93.70;;;;;;5055883;28;20045;-67
2022/10/04 03:08:56;;;;;;;14.90;4.07;;;15.80;93.70;;;;;;5055079;28;20036;-67
2022/10/04 03:11:30;;;;;;;11.63;4.53;;;15.80;94.00;;;;;;5055584;28;20037;-67
2022/10/04 03:13:58;;;;;;;17.95;5.00;;;15.70;93.70;;;;;;5055714;28;20029;-67
2022/10/04 03:16:25;;;;;;;13.32;4.15;;;15.70;93.70;;;;;;5054769;28;20033;-67
2022/10/04 03:18:54;;;;;;;16.40;5.07;;;15.70;93.70;;;;;;5055703;28;20392;-67
2022/10/04 03:21:21;;;;;;;14.43;4.70;;;15.70;94.00;;;;;;5055497;28;20076;-67
2022/10/04 03:23:49;;;;;;;11.48;4.28;;;15.70;93.70;;;;;;5054717;28;20508;-67
2022/10/04 03:26:44;;;;;;;11.23;5.13;;;15.80;93.70;;;;;;5056188;28;20033;-67
2022/10/04 03:29:13;;;;;;;14.02;4.38;;;15.70;93.70;;;;;;5054921;28;20056;-67
2022/10/04 03:31:42;;;;;;;11.55;4.15;;;15.70;93.70;;;;;;5055409;28;20108;-67
2022/10/04 03:34:34;;;;;;;12.05;4.93;;;15.70;93.70;;;;;;5055286;28;20037;-67
2022/10/04 03:37:00;;;;;;;15.35;4.85;;;15.70;93.70;;;;;;5053980;28;20032;-67
2022/10/04 03:39:42;;;;;;;16.58;5.00;;;15.70;93.60;;;;;;5054870;28;20468;-67
2022/10/04 03:42:20;;;;;;;16.02;5.68;;;15.70;93.70;;;;;;5054987;28;20079;-67
2022/10/04 03:44:49;;;;;;;11.00;4.50;;;15.70;93.60;;;;;;5054144;28;20095;-67
2022/10/04 03:47:20;;;;;;;9.00;4.25;;;15.70;93.60;;;;;;5054878;28;20082;-67
2022/10/04 03:49:47;;;;;;;10.50;4.10;;;15.60;93.60;;;;;;5055031;28;20043;-67
2022/10/04 03:52:34;;;;;;;13.73;5.15;;;15.60;93.50;;;;;;5054446;28;20021;-67
2022/10/04 03:55:04;;;;;;;6.40;3.42;;;15.60;93.50;;;;;;5054739;28;20064;-67
2022/10/04 03:57:30;;;;;;;13.27;4.43;;;15.60;93.50;;;;;;5054163;28;20036;-67
2022/10/04 03:59:59;;;;;;;11.38;4.10;;;15.60;93.40;;;;;;5054835;28;20043;-67
2022/10/04 04:02:24;;;;;;;14.20;4.38;;;15.60;93.50;;;;;;5054782;28;20052;-67
2022/10/04 04:05:08;;;;;;;11.57;4.50;;;15.60;93.50;;;;;;5053860;28;20480;-67
2022/10/04 04:07:37;;;;;;;;;;;15.60;93.60;;;;;;5055002;28;20029;-67
2022/10/04 04:10:22;;;;;;;16.73;5.00;;;15.50;93.40;;;;;;5054530;28;19916;-67
2022/10/04 04:13:16;;;;;;;15.63;4.47;;;15.50;93.50;;;;;;5053725;28;20120;-67
2022/10/04 04:15:44;;;;;;;17.80;5.30;;;15.50;93.60;;;;;;5054490;28;20049;-67
2022/10/04 04:18:20;;;;;;;15.43;5.55;;;15.50;93.60;;;;;;5054645;28;20056;-67
2022/10/04 04:20:48;;;;;;;14.32;4.85;;;15.60;93.70;;;;;;5053656;28;20025;-67
2022/10/04 04:23:13;;;;;;;13.98;5.05;;;15.50;93.60;;;;;;5054324;28;20033;-67
2022/10/04 04:25:42;;;;;;;8.38;3.90;;;15.50;93.60;;;;;;5053578;28;20033;-67
2022/10/04 04:28:31;;;;;;;16.27;4.57;;;15.50;93.70;;;;;;5054278;28;20029;-67
2022/10/04 04:31:13;;;;;;;13.07;4.10;;;15.50;93.70;;;;;;5054270;28;20029;-67
2022/10/04 04:34:00;;;;;;;11.02;4.47;;;15.60;93.70;;;;;;5053531;28;20025;-67
2022/10/04 04:36:28;;;;;;;13.75;4.28;;;15.50;93.60;;;;;;5054253;28;20035;-67
2022/10/04 04:41:50;;;;;;;12.20;4.65;;;15.50;93.60;;;;;;5053345;28;20036;-67
2022/10/04 04:44:18;;;;;;;12.88;4.50;;;15.50;93.40;;;;;;5053874;28;20045;-67
2022/10/04 04:46:46;;;;;;;14.23;4.20;;;15.50;93.40;;;;;;5053161;28;20025;-67
2022/10/04 04:49:16;;;;;;;7.85;4.07;;;15.50;93.40;;;;;;5053094;28;20029;-67
2022/10/04 04:51:48;;;;;;;13.60;3.67;;;15.50;93.40;;;;;;5053768;28;20388;-67
2022/10/04 04:54:16;;;;;;;12.97;4.93;;;15.50;93.40;;;;;;5053119;28;20045;-67
2022/10/04 04:56:43;;;;;;;12.20;3.75;;;15.50;93.30;;;;;;5053491;28;20460;-67
2022/10/04 04:59:10;;;;;;;16.65;4.47;;;15.40;93.30;;;;;;5053838;28;20033;-67
2022/10/04 05:01:43;;;;;;;11.85;5.20;;;15.40;93.30;;;;;;5052947;28;20041;-67
2022/10/04 05:04:11;;;;;;;12.52;4.47;;;15.40;93.40;;;;;;5053409;28;20495;-67
2022/10/04 05:06:39;;;;;;;14.50;5.53;;;15.30;93.30;;;;;;5053717;28;20044;-67
2022/10/04 05:09:20;;;;;;;9.68;4.13;;;15.30;93.40;;;;;;5053022;28;20021;-67
2022/10/04 05:11:47;;;;;;;14.85;5.78;;;15.30;93.30;;;;;;5053570;28;20112;-67
2022/10/04 05:14:16;;;;;;;15.27;5.50;;;15.30;93.40;;;;;;5053491;28;20029;-67
2022/10/04 05:16:53;;;;;;;12.32;5.55;;;15.20;93.40;;;;;;5052836;28;20037;-67
2022/10/04 05:19:30;;;;;;;9.82;4.85;;;15.20;93.40;;;;;;5053476;28;20044;-67
2022/10/04 05:22:05;;;;;;;12.13;4.63;;;15.20;93.40;;;;;;5052678;28;20092;-67
2022/10/04 05:24:35;;;;;;;13.25;5.13;;;15.20;93.40;;;;;;5053347;28;20511;-67
2022/10/04 05:27:04;;;;;;;14.27;5.25;;;15.20;93.40;;;;;;5053251;28;20040;-67
2022/10/04 05:29:35;;;;;;;12.13;4.60;;;15.10;93.30;;;;;;5052479;28;20484;-67
2022/10/04 05:32:04;;;;;;;15.20;4.95;;;15.10;93.30;;;;;;5053617;28;20106;-67
2022/10/04 05:34:35;;;;;;;13.57;4.38;;;15.10;93.30;;;;;;5053143;28;20029;-67
2022/10/04 05:37:25;;;;;;;10.93;4.82;;;15.00;93.30;;;;;;5052414;28;20032;-67
2022/10/04 05:40:22;;;;;;;11.02;3.92;;;15.10;93.40;;;;;;5053430;28;20040;-67
2022/10/04 05:42:50;;;;;;;14.25;4.93;;;15.00;93.30;;;;;;5052806;28;20040;-67
2022/10/04 05:45:22;;;;;;;11.73;4.70;;;15.00;93.30;;;;;;5053078;28;20056;-67
2022/10/04 05:47:53;;;;;;;12.43;4.88;;;15.00;93.40;;;;;;5052982;28;20025;-67
2022/10/04 05:50:27;;;;;;;8.07;3.38;;;15.00;93.40;;;;;;5052597;28;20055;-67
2022/10/04 05:53:23;;;;;;;13.48;5.03;;;14.90;93.30;;;;;;5053372;28;20369;-67
2022/10/04 05:56:13;;;;;;;12.98;5.03;;;14.90;93.40;;;;;;5052864;28;20144;-67
2022/10/04 05:59:12;;;;;;;11.75;5.22;;;14.90;93.40;;;;;;5052589;28;20037;-67
2022/10/04 06:01:58;;;;;;;10.70;4.80;;;14.80;93.40;;;;;;5055345;28;20387;-67
2022/10/04 06:04:47;;;;;;;10.63;4.80;;;14.80;93.40;;;;;;5056231;28;20128;-67
2022/10/04 06:07:24;;;;;;;13.77;6.07;;;14.80;93.40;;;;;;5056877;28;20043;-67
2022/10/04 06:10:28;;;;;;;22.10;5.80;;;14.80;93.40;;;;;;5056722;28;20032;-67
2022/10/04 06:13:27;;;;;;;21.15;5.38;;;14.80;93.40;;;;;;5056060;28;20036;-67
2022/10/04 06:16:11;;;;;;;14.63;5.63;;;14.80;93.40;;;;;;5056743;28;20513;-67
2022/10/04 06:19:10;;;;;;;13.88;4.90;;;14.70;93.40;;;;;;5056036;28;20047;-67
2022/10/04 06:21:35;;;;;;;14.20;5.07;;;14.80;93.50;;;;;;5056568;28;20476;-67
2022/10/04 06:24:10;;;;;;;13.77;5.38;;;14.80;93.40;;;;;;5056584;28;20083;-67
2022/10/04 06:27:09;;;;;;;10.25;4.00;;;14.80;93.50;;;;;;5055824;28;20396;-67
2022/10/04 06:29:42;;;;;;;9.52;4.55;;;14.70;93.40;;;;;;5049229;28;20041;-67
2022/10/04 06:32:23;;;;;;;10.52;4.15;;;14.70;93.30;;;;;;5055855;28;20029;-67
2022/10/04 06:35:09;;;;;;;18.48;5.72;;;14.70;93.30;;;;;;5056401;28;20037;-67
2022/10/04 06:38:01;;;;;;;23.25;4.80;;;14.70;93.40;;;;;;5056056;28;20025;-67
2022/10/04 06:40:56;;;;;;;11.45;3.47;;;14.70;93.30;;;;;;5055458;28;20486;-67
2022/10/04 06:43:46;;;;;;;11.88;5.47;;;14.70;93.30;;;;;;5056321;28;20033;-67
2022/10/04 06:46:41;;;;;;;16.52;6.38;;;14.60;93.30;;;;;;5055337;28;20429;-67
2022/10/04 06:49:32;;;;;;;11.38;4.82;;;14.60;93.40;;;;;;5055997;28;20534;-67
2022/10/04 06:52:37;;;;;;;14.93;5.40;;;14.60;93.30;;;;;;5056111;28;20044;-67
2022/10/04 06:55:37;;;;;;;16.13;6.03;;;14.60;93.40;;;;;;5055255;28;20076;-67
2022/10/04 06:58:41;;;;;;;11.52;5.28;;;14.60;93.50;;;;;;5055502;28;20033;-68
2022/10/04 07:01:33;;;;;;;12.63;6.10;;;14.60;93.40;;;;;;5054968;28;20042;-66
2022/10/04 07:04:30;;;;;;;11.20;4.68;;;14.60;93.30;;;;;;5056044;28;20064;-64
2022/10/04 07:07:34;;;;;;;10.25;4.95;;;14.60;93.30;;;;;;5055672;28;20037;-71
2022/10/04 07:10:18;;;;;;;18.02;5.68;;;14.60;93.40;;;;;;5055753;28;20506;-72
2022/10/04 07:13:10;;;;;;;9.80;5.72;;;14.50;93.30;;;;;;5054412;28;20033;-72
2022/10/04 07:16:00;;;;;;;10.63;5.13;;;14.60;93.30;;;;;;5049621;28;20468;-71
2022/10/04 07:18:49;;;;;;;13.50;4.53;;;14.50;93.30;;;;;;5053053;28;20384;-72
2022/10/04 07:21:16;;;;;;;13.13;5.25;;;14.60;93.30;;;;;;5045463;28;20515;-72
2022/10/04 07:23:50;;;;;;;14.27;5.38;;;14.60;93.30;;;;;;5054786;28;20123;-74
2022/10/04 07:26:47;;;;;;;10.70;3.67;;;14.60;93.40;;;;;;5055715;28;20075;-72
2022/10/04 07:29:22;;;;;;;10.10;5.57;;;14.50;93.30;;;;;;5050098;28;20033;-68
2022/10/04 07:32:04;;;;;;;11.27;6.38;;;14.60;93.40;;;;;;5054769;28;20163;-69
2022/10/04 07:34:35;;;;;;;20.60;6.22;;;14.60;93.50;;;;;;5054319;28;20130;-68
2022/10/04 07:37:11;;;;;;;13.02;6.00;;;14.60;93.60;;;;;;5054300;28;20033;-67
2022/10/04 07:39:58;;;;;;;15.50;6.63;;;14.60;93.70;;;;;;5054866;28;20128;-71
2022/10/04 07:42:24;;;;;;;11.85;6.20;;;14.70;93.70;;;;;;5054910;28;20376;-67
2022/10/04 07:45:14;;;;;;;17.33;5.95;;;14.70;93.50;;;;;;5056254;28;20048;-67
2022/10/04 07:47:41;;;;;;;7.13;4.25;;;14.70;93.60;;;;;;5055930;28;20036;-67
2022/10/04 07:50:22;;;;;;;5.60;3.45;;;14.70;93.40;;;;;;5055698;28;20037;-67
2022/10/04 07:52:57;;;;;;;14.43;5.57;;;14.80;93.70;;;;;;5056630;28;20037;-67
2022/10/04 07:55:46;;;;;;;14.05;5.32;;;14.70;93.40;;;;;;5056805;28;20060;-66
2022/10/04 07:58:17;;;;;;;3.53;2.13;;;14.80;93.50;;;;;;5054949;28;20033;-67
2022/10/04 08:00:54;;;;;;;8.40;4.57;;;14.90;93.30;;;;;;5056241;28;20029;-66
2022/10/04 08:03:40;;;;;;;9.98;4.95;;;14.80;93.30;;;;;;5055407;28;20432;-66
2022/10/04 08:06:10;;;;;;;20.80;6.90;;;14.90;93.30;;;;;;5056075;28;20116;-66
2022/10/04 08:08:51;;;;;;;8.07;4.30;;;14.90;93.40;;;;;;5055910;28;20438;-67
2022/10/04 08:11:35;;;;;;;8.88;4.53;;;14.90;93.40;;;;;;5053967;28;20041;-66
2022/10/04 08:14:19;;;;;;;11.55;6.00;;;14.90;93.40;;;;;;5054785;28;20036;-65
2022/10/04 08:17:12;;;;;;;13.60;6.32;;;14.90;93.40;;;;;;5054758;28;20384;-66
2022/10/04 08:19:56;;;;;;;12.23;5.65;;;14.90;93.60;;;;;;5053693;28;20068;-66
2022/10/04 08:22:31;;;;;;;;;;;14.90;93.60;;;;;;5055147;28;20029;-66
2022/10/04 08:25:16;;;;;;;12.20;6.18;;;14.90;93.50;;;;;;5054883;28;19917;-66
2022/10/04 08:31:11;;;;;;;10.63;5.70;;;14.90;93.70;;;;;;5055140;28;20033;-66
2022/10/04 08:34:01;;;;;;;13.40;6.72;;;14.90;93.80;;;;;;5054005;28;20037;-66
2022/10/04 08:36:40;;;;;;;25.42;6.85;;;14.90;93.90;;;;;;5055434;28;20047;-65
2022/10/04 08:39:31;;;;;;;12.10;5.65;;;14.90;93.90;;;;;;5053758;28;20201;-66
2022/10/04 08:42:48;;;;;;;9.95;4.28;;;14.90;93.90;;;;;;5054134;28;20028;-66
2022/10/04 08:45:49;;;;;;;5.68;3.53;;;14.90;93.90;;;;;;5049123;28;20498;-67
2022/10/04 08:48:59;;;;;;;12.88;6.88;;;14.90;93.80;;;;;;5053802;28;20029;-67
2022/10/04 08:52:15;;;;;;;17.20;5.55;;;14.90;94.00;;;;;;5054052;28;20044;-68
2022/10/04 08:54:59;;;;;;;10.88;5.18;;;15.00;94.00;;;;;;5054955;28;20056;-68
2022/10/04 08:57:43;;;;;;;14.00;5.95;;;15.00;94.00;;;;;;5055296;28;20036;-68
2022/10/04 09:00:30;;;;;;;6.25;2.75;;;15.10;94.00;;;;;;5054706;28;20029;-68
2022/10/04 09:03:26;;;;;;;4.40;2.88;;;15.10;93.90;;;;;;5054359;28;20044;-68
2022/10/04 09:06:20;;;;;;;9.27;3.90;;;15.10;93.90;;;;;;5054417;28;20123;-68
2022/10/04 09:09:25;;;;;;;8.68;4.55;;;15.10;94.00;;;;;;5053176;28;20024;-68
2022/10/04 09:12:12;;;;;;;17.40;5.07;;;15.10;94.10;;;;;;5053479;28;20033;-68
2022/10/04 09:14:57;;;;;;;7.13;4.18;;;15.20;94.00;;;;;;5053806;28;20039;-69
2022/10/04 09:17:55;;;;;;;8.68;3.38;;;15.20;94.10;;;;;;5055643;28;20036;-69
2022/10/04 09:20:46;;;;;;;11.23;4.65;;;15.20;94.20;;;;;;5056117;28;20029;-68
2022/10/04 09:23:40;;;;;;;6.20;3.30;;;15.20;94.30;;;;;;5052972;28;20084;-68
2022/10/04 09:26:06;;;;;;;;;;;15.20;94.40;;;;;;5054665;28;20037;-68
2022/10/04 09:29:05;;;;;;;5.97;2.78;;;15.20;94.50;;;;;;5054178;28;20435;-69
2022/10/04 09:31:46;;;;;;;10.13;2.72;;;15.20;94.70;;;;;;5050042;28;20527;-69
2022/10/04 09:34:33;;;;;;;6.85;2.25;;;15.20;94.80;;;;;;5053937;28;20044;-69
2022/10/04 09:37:05;;;;;;;3.95;2.40;;;15.20;94.90;;;;;;5055940;28;20364;-69
2022/10/04 09:39:55;;;;;;;8.48;4.03;;;15.20;94.90;;;;;;5057438;28;20094;-68
2022/10/04 09:42:29;;;;;;;15.48;3.55;;;15.30;95.00;;;;;;5058936;28;20025;-69
2022/10/04 09:45:13;;;;;;;12.50;5.03;;;15.30;95.00;;;;;;5057517;28;20048;-69
2022/10/04 09:47:40;;;;;;;8.68;3.45;;;15.40;95.20;;;;;;5057445;28;20033;-69
2022/10/04 09:50:17;;;;;;;3.83;2.03;;;15.40;95.10;;;;;;5056677;28;20028;-69
2022/10/04 09:53:02;;;;;;;5.15;2.10;;;15.50;95.20;;;;;;5057192;28;20111;-68
2022/10/04 09:56:05;;;;;;;3.65;2.47;;;15.50;95.30;;;;;;5057235;28;20064;-69
2022/10/04 09:59:17;;;;;;;9.02;2.35;;;15.50;95.30;;;;;;5057245;28;20028;-69
2022/10/04 10:01:52;;;;;;;4.55;1.92;;;15.50;95.60;;;;;;5037835;28;20072;-75
2022/10/04 10:04:46;;;;;;;6.07;3.03;;;15.50;95.70;;;;;;5056287;28;20033;-69
2022/10/04 10:07:20;;;;;;;7.25;2.88;;;15.40;95.80;;;;;;5056908;28;20068;-70
2022/10/04 10:13:39;;;;;;;6.03;3.15;;;15.40;96.00;;;;;;5056999;28;20037;-73
2022/10/04 10:16:24;;;;;;;6.93;2.60;;;15.50;96.10;;;;;;5056952;28;20021;-73
2022/10/04 10:19:05;;;;;;;5.47;2.40;;;15.50;96.10;;;;;;5056393;28;20400;-73
2022/10/04 10:21:58;;;;;;;5.72;2.03;;;15.50;96.10;;;;;;5057934;28;20090;-73
2022/10/04 10:24:43;;;;;;;9.35;2.53;;;15.50;96.00;;;;;;5057531;28;20384;-73
2022/10/04 10:27:46;;;;;;;4.55;2.80;;;15.60;96.00;;;;;;5057681;28;20025;-73
2022/10/04 10:30:33;;;;;;;7.72;2.17;;;15.60;96.00;;;;;;5055536;28;20090;-72
2022/10/04 10:33:19;;;;;;;5.10;1.70;;;15.60;95.90;;;;;;5055664;28;20086;-72
2022/10/04 10:36:03;;;;;;;4.07;2.35;;;15.60;95.90;;;;;;5056679;28;20038;-73
2022/10/04 10:39:08;;;;;;;2.78;1.67;;;15.60;95.90;;;;;;5055609;28;20116;-73
2022/10/04 10:41:34;;;;;;;1.75;1.65;;;15.70;95.90;;;;;;5056978;28;20079;-73
2022/10/04 10:44:33;;;;;;;2.15;1.70;;;15.80;95.90;;;;;;5057315;28;20096;-73
2022/10/04 10:47:14;;;;;;;5.10;1.88;;;15.90;95.90;;;;;;5049649;28;20064;-72
2022/10/04 10:50:10;;;;;;;6.88;2.53;;;15.80;95.70;;;;;;5056102;28;20029;-73
2022/10/04 10:53:04;;;;;;;8.27;2.03;;;15.90;95.60;;;;;;5055466;28;20080;-73
2022/10/04 10:55:40;;;;;;;1.63;1.13;;;15.90;95.60;;;;;;5055790;28;20114;-73
2022/10/04 10:58:05;;;;;;;6.53;2.10;;;15.90;95.50;;;;;;5055863;28;20037;-73
2022/10/04 11:00:32;;;;;;;3.38;1.77;;;16.00;95.50;;;;;;5055287;28;20467;-73
2022/10/04 11:03:29;;;;;;;4.60;2.15;;;16.00;95.40;;;;;;5056013;28;20129;-72
2022/10/04 11:06:14;;;;;;;3.72;1.73;;;16.00;95.40;;;;;;5055868;28;20065;-73
2022/10/04 11:09:19;;;;;;;5.70;2.40;;;16.00;95.30;;;;;;5055918;28;20040;-73
2022/10/04 11:12:04;;;;;;;3.42;2.20;;;16.10;95.30;;;;;;5055760;28;20067;-73
2022/10/04 11:15:15;;;;;;;7.30;1.75;;;16.10;95.40;;;;;;5054857;28;20053;-73
2022/10/04 11:18:02;;;;;;;2.17;1.42;;;16.20;95.50;;;;;;5049874;28;20563;-73
2022/10/04 11:20:47;;;;;;;2.42;1.67;;;16.20;95.40;;;;;;5054768;28;20456;-73
2022/10/04 11:23:42;;;;;;;4.63;2.40;;;16.30;95.50;;;;;;5055030;28;20044;-73
2022/10/04 11:26:33;;;;;;;3.72;1.60;;;16.40;95.40;;;;;;5045642;28;20043;-73
2022/10/04 11:29:25;;;;;;;5.25;2.08;;;16.40;95.40;;;;;;5054656;28;20036;-73
2022/10/04 11:32:00;;;;;;;0.70;0.68;;;16.50;95.50;;;;;;5055500;28;20036;-73
2022/10/04 11:34:34;;;;;;;2.15;1.55;;;16.60;95.40;;;;;;5055474;28;20032;-73
2022/10/04 11:37:03;;;;;;;6.82;1.85;;;16.70;95.40;;;;;;5055257;28;20078;-73
2022/10/04 11:39:53;;;;;;;8.15;1.58;;;16.70;95.50;;;;;;5055269;28;20043;-73
2022/10/04 11:42:51;;;;;;;8.10;3.20;;;16.70;95.40;;;;;;5054505;28;20086;-73
2022/10/04 11:45:40;;;;;;;6.30;2.38;;;16.80;95.20;;;;;;5055088;28;20049;-73
2022/10/04 11:48:47;;;;;;;6.55;2.30;;;16.90;95.40;;;;;;5051685;28;20102;-73
2022/10/04 11:51:58;;;;;;;1.67;1.33;;;17.00;95.30;;;;;;5053760;28;20041;-73
2022/10/04 11:54:46;;;;;;;6.40;2.03;;;17.10;95.20;;;;;;5054377;28;20115;-72
2022/10/04 11:57:33;;;;;;;4.57;2.05;;;17.10;95.20;;;;;;5054340;28;20115;-73
2022/10/04 12:00:16;;;;;;;5.70;2.47;;;17.10;95.00;;;;;;5054353;28;20044;-73
2022/10/04 12:03:08;;;;;;;3.67;1.58;;;17.20;95.00;;;;;;5054145;28;20448;-73
2022/10/04 12:05:39;;;;;;;3.70;1.90;;;17.30;95.10;;;;;;5054748;28;20063;-73
2022/10/04 12:08:19;;;;;;;3.88;1.45;;;17.30;95.10;;;;;;5054826;28;20028;-72
2022/10/04 12:11:14;;;;;;;4.28;2.10;;;17.40;95.10;;;;;;5053850;28;20029;-70
2022/10/04 12:14:01;;;;;;;4.47;1.85;;;17.50;95.10;;;;;;5054630;28;20032;-70
2022/10/04 12:17:04;;;;;;;4.75;1.88;;;17.60;95.10;;;;;;5054427;28;20497;-70
2022/10/04 12:19:51;;;;;;;4.78;2.03;;;17.70;95.00;;;;;;5054353;28;20048;-69
2022/10/04 12:22:38;;;;;;;1.35;0.75;;;17.80;95.00;;;;;;5054470;28;20033;-69
2022/10/04 12:25:28;;;;;;;5.20;1.55;;;17.80;95.20;;;;;;5053499;28;20040;-69
2022/10/04 12:28:16;;;;;;;1.85;1.48;;;17.90;95.20;;;;;;5054420;28;20025;-69
2022/10/04 12:30:45;;;;;;;2.58;1.48;;;18.00;95.30;;;;;;5054080;28;20040;-69
2022/10/04 12:33:38;;;;;;;1.17;1.00;;;18.10;95.20;;;;;;5054297;28;20021;-69
2022/10/04 12:36:16;;;;;;;1.73;1.23;;;18.10;95.20;;;;;;5053928;28;20037;-69
2022/10/04 12:38:58;;;;;;;6.65;2.08;;;18.20;95.20;;;;;;5053339;28;20116;-68
2022/10/04 12:41:39;;;;;;;1.95;1.08;;;18.30;95.10;;;;;;5054279;28;20430;-68
2022/10/04 12:44:33;;;;;;;1.35;1.10;;;18.40;95.00;;;;;;5054166;28;20104;-69
2022/10/04 12:47:08;;;;;;;;;;;18.50;94.80;;;;;;5053617;28;20021;-73
2022/10/04 12:49:39;;;;;;;1.33;1.02;;;18.50;94.80;;;;;;5053984;28;19923;-72
2022/10/04 12:52:17;;;;;;;4.65;1.50;;;18.60;94.80;;;;;;5053140;28;20464;-69
2022/10/04 12:54:46;;;;;;;4.30;1.98;;;18.70;95.00;;;;;;5053951;28;20446;-71
2022/10/04 12:57:30;;;;;;;11.13;1.60;;;18.70;94.80;;;;;;5053841;28;20450;-73
2022/10/04 12:59:55;;;;;;;;;;;18.80;94.90;;;;;;5053479;28;20044;-73
2022/10/04 13:02:23;;;;;;;9.52;2.47;;;18.90;94.90;;;;;;5053717;28;19909;-73
2022/10/04 13:04:58;;;;;;;4.78;1.88;;;19.00;94.40;;;;;;5053622;28;20098;-73
2022/10/04 13:08:02;;;;;;;7.07;3.08;;;19.00;94.50;;;;;;5052865;28;20082;-73
2022/10/04 13:10:55;;;;;;;5.22;2.17;;;19.10;94.40;;;;;;5052740;28;20494;-73
2022/10/04 13:13:43;;;;;;;8.07;3.03;;;19.20;94.50;;;;;;5052797;28;20082;-73
2022/10/04 13:16:21;;;;;;;13.73;3.08;;;19.30;94.10;;;;;;5053666;28;20104;-73
2022/10/04 13:18:55;;;;;;;5.60;2.40;;;19.40;94.60;;;;;;5053506;28;20060;-73
2022/10/04 13:21:39;;;;;;;11.20;2.20;;;19.50;94.60;;;;;;5052674;28;20098;-73
2022/10/04 13:24:28;;;;;;;7.43;3.10;;;19.50;94.30;;;;;;5053166;28;20044;-73
2022/10/04 13:26:53;;;;;;;4.43;1.58;;;19.50;93.70;;;;;;5053494;28;20025;-73
2022/10/04 13:29:34;;;;;;;9.40;3.15;;;19.60;94.40;;;;;;5052652;28;20533;-73
2022/10/04 13:32:15;;;;;;;6.53;2.28;;;19.60;94.00;;;;;;5053442;28;20037;-73
2022/10/04 13:35:01;;;;;;;2.22;1.63;;;19.70;94.50;;;;;;5052510;28;20044;-73
2022/10/04 13:37:48;;;;;;;5.45;2.58;;;19.80;94.00;;;;;;5053444;28;20025;-73
2022/10/04 13:41:00;;;;;;;5.97;2.80;;;19.80;93.90;;;;;;5053399;28;20491;-73
2022/10/04 13:43:59;;;;;;;4.28;2.40;;;19.90;94.00;;;;;;5040255;28;20051;-73
2022/10/04 13:46:28;;;;;;;12.38;3.75;;;20.00;94.00;;;;;;5053231;28;20086;-73
2022/10/04 13:49:21;;;;;;;2.75;1.90;;;20.10;93.90;;;;;;5052511;28;20033;-73
2022/10/04 13:58:27;;;;;;;5.70;2.40;;;20.30;93.60;;;;;;5053306;28;20033;-73
2022/10/04 14:01:02;;;;;;;2.95;2.20;;;20.40;94.20;;;;;;5053250;28;20162;-73
2022/10/04 14:03:53;;;;;;;6.00;2.40;;;20.40;94.30;;;;;;5051841;28;20033;-74
2022/10/04 14:06:31;;;;;;;7.97;3.47;;;20.50;94.50;;;;;;5033573;28;20080;-73
2022/10/04 14:09:20;;;;;;;7.43;2.63;;;20.50;93.50;;;;;;5052882;28;20083;-72
2022/10/04 14:12:37;;;;;;;5.55;2.33;;;20.60;94.30;;;;;;5053114;28;20049;-72
2022/10/04 14:15:24;;;;;;;6.72;3.00;;;20.70;93.90;;;;;;5052639;28;20082;-72